Aleksandr Zhitnik — EMBN — position and weather

sailwx.info

Track history (hours):
 
Tides and Currents Weather Stations Pressure Air Temp Water Temp Dewpoint Dewpoint Depression Visibility Wind Speed Wind Dir Waves Ship Positions

Aleksandr Zhitnik

Last reported at 2016-Dec-30 03:10 UTC. Time now 2017-Feb-25 11:46 UTC.
Position N 43°48' E 023°08'.
Warning: this ship's position is 57 days out of date.

Length 85 m; draft 1.8 m.

MMSI: 272089600.

Date/timePositionNaut miles runAvg speedWind from/ knotsBaromVisibWave heightAir tempDewpointWater temp
2016-Dec-30 03:10N 43°48' E 023°08'5 4.9
2016-Dec-30 02:14N 43°48' E 023°02'8 4.6
2016-Dec-30 00:32N 43°51' E 022°52'4 4.5
2016-Dec-29 23:33N 43°55' E 022°51'5 4.5
2016-Dec-29 22:31N 43°59' E 022°53'5 5.1
2016-Dec-29 21:29N 44°01' E 023°00'4 4.6
2016-Dec-29 20:33N 44°05' E 023°03'5 4.6
2016-Dec-29 19:33N 44°06' E 022°56'5 4.9
2016-Dec-29 18:34N 44°09' E 022°51'5 4.7
2016-Dec-29 17:34N 44°11' E 022°46'5 4.5
2016-Dec-29 16:34N 44°14' E 022°41'4 4.0
2016-Dec-29 15:33N 44°18' E 022°38'3 3.1
2016-Dec-29 14:34N 44°19' E 022°34'1 0.8
2016-Dec-29 13:34N 44°20' E 022°33'4 4.4
2016-Dec-29 12:34N 44°23' E 022°30'4 4.0
2016-Dec-29 11:33N 44°27' E 022°28'3 2.7
2016-Dec-29 10:34N 44°28' E 022°31'3 3.4
2016-Dec-29 09:34N 44°31' E 022°34'3 3.5
2016-Dec-29 08:33N 44°33' E 022°38'4 4.0
2016-Dec-29 07:34N 44°31' E 022°43'3 3.4
2016-Dec-29 06:33N 44°35' E 022°44'4 4.1
2016-Dec-29 05:33N 44°37' E 022°39'5 4.8
2016-Dec-29 04:33N 44°39' E 022°33'2 1.7
2016-Dec-29 03:33N 44°40' E 022°31'0 0.1
2016-Dec-29 02:33N 44°40' E 022°31'2 2.3
2016-Dec-29 01:33N 44°42' E 022°29'3 3.2
2016-Dec-29 00:33N 44°42' E 022°25'3 3.4
2016-Dec-28 23:33N 44°40' E 022°21'8 4.2
2016-Dec-28 21:33N 44°34' E 022°14'4 4.3
2016-Dec-28 20:33N 44°30' E 022°12'3 3.5
2016-Dec-28 19:33N 44°29' E 022°07'4 4.0
2016-Dec-28 18:33N 44°32' E 022°04'4 4.1
2016-Dec-28 17:33N 44°36' E 022°01'16 4.0
2016-Dec-28 13:32N 44°41' E 021°40'5 4.3
2016-Dec-28 12:27N 44°45' E 021°36'4 4.0
2016-Dec-28 11:24N 44°46' E 021°30'1 0.1
2016-Dec-28 04:10N 44°46' E 021°31'0 0.4
2016-Dec-28 03:23N 44°46' E 021°31'3 3.9
2016-Dec-28 02:32N 44°46' E 021°26'9 4.2
2016-Dec-28 00:28N 44°47' E 021°14'4 4.5
2016-Dec-27 23:34N 44°45' E 021°09'5 5.0
2016-Dec-27 22:33N 44°43' E 021°03'4 4.2
2016-Dec-27 21:33N 44°42' E 020°57'5 5.3
2016-Dec-27 20:34N 44°39' E 020°50'5 5.3
2016-Dec-27 19:33N 44°41' E 020°43'6 5.5
2016-Dec-27 18:32N 44°45' E 020°38'5 5.1
2016-Dec-27 17:32N 44°50' E 020°38'4 3.8
2016-Dec-27 16:32N 44°50' E 020°33'3 3.3
2016-Dec-27 15:32N 44°50' E 020°29'0 0.2
2016-Dec-27 14:32N 44°50' E 020°29'0 0.3
2016-Dec-27 13:32N 44°49' E 020°29'0 0.0
2016-Dec-27 12:31N 44°49' E 020°29'0 0.0
2016-Dec-27 11:31N 44°49' E 020°29'0 0.0
2016-Dec-27 10:28N 44°49' E 020°29'0 0.0
2016-Dec-27 09:28N 44°49' E 020°29'0 0.0
2016-Dec-27 08:31N 44°49' E 020°29'0 0.0
2016-Dec-27 07:31N 44°49' E 020°29'0 0.0
2016-Dec-27 06:31N 44°49' E 020°29'0 0.0
2016-Dec-27 05:28N 44°49' E 020°29'0 0.0
2016-Dec-27 04:31N 44°49' E 020°29'0 0.0
2016-Dec-27 03:31N 44°49' E 020°29'0 0.0
2016-Dec-27 02:31N 44°49' E 020°29'0 0.0
2016-Dec-27 01:28N 44°49' E 020°29'0 0.0
2016-Dec-27 00:31N 44°49' E 020°29'0 0.0
2016-Dec-26 23:31N 44°49' E 020°29'0 0.0
2016-Dec-26 22:28N 44°49' E 020°29'0 0.0
2016-Dec-26 21:31N 44°49' E 020°29'0 0.0
2016-Dec-26 20:31N 44°49' E 020°29'0 0.0
2016-Dec-26 19:31N 44°49' E 020°29'0 0.0
2016-Dec-26 18:31N 44°49' E 020°29'0 0.0
2016-Dec-26 17:31N 44°49' E 020°29'0 0.0
2016-Dec-26 16:31N 44°49' E 020°29'0 0.0
2016-Dec-26 15:31N 44°49' E 020°29'0 0.0
2016-Dec-26 14:31N 44°49' E 020°29'0 0.0
2016-Dec-26 13:31N 44°49' E 020°29'0 0.0
2016-Dec-26 12:31N 44°49' E 020°29'0 0.0
2016-Dec-26 11:31N 44°49' E 020°29'0 0.0
2016-Dec-26 10:31N 44°49' E 020°29'0 0.0
2016-Dec-26 09:31N 44°49' E 020°29'0 0.0
2016-Dec-26 08:31N 44°49' E 020°29'0 0.0
2016-Dec-26 07:31N 44°49' E 020°29'0 0.0
2016-Dec-26 06:31N 44°49' E 020°29'0 0.0
2016-Dec-26 05:31N 44°49' E 020°29'0 0.0
2016-Dec-26 04:31N 44°49' E 020°29'0 0.0
2016-Dec-26 03:31N 44°49' E 020°29'0 0.0
2016-Dec-26 02:31N 44°49' E 020°29'0 0.0
2016-Dec-26 01:31N 44°49' E 020°29'0 0.0
2016-Dec-26 00:31N 44°49' E 020°29'0 0.0
2016-Dec-25 23:31N 44°49' E 020°29'0 0.0
2016-Dec-25 22:31N 44°49' E 020°29'0 0.0
2016-Dec-25 21:28N 44°49' E 020°29'0 0.0
2016-Dec-25 20:31N 44°49' E 020°29'0 0.0
2016-Dec-25 19:31N 44°49' E 020°29'0 0.0
2016-Dec-25 18:31N 44°49' E 020°29'0 0.0
2016-Dec-25 17:31N 44°49' E 020°29'0 0.0
2016-Dec-25 16:31N 44°49' E 020°29'0 0.0
2016-Dec-25 15:31N 44°49' E 020°29'0 0.0
2016-Dec-25 14:31N 44°49' E 020°29'0 0.0
2016-Dec-25 13:31N 44°49' E 020°29'0 0.0
2016-Dec-25 12:31N 44°49' E 020°29'0 0.0
2016-Dec-25 11:31N 44°49' E 020°29'0 0.0
2016-Dec-25 10:31N 44°49' E 020°29'0 0.0
2016-Dec-25 09:31N 44°49' E 020°29'0 0.0
2016-Dec-25 08:31N 44°49' E 020°29'0 0.0
2016-Dec-25 07:31N 44°49' E 020°29'0 0.0
2016-Dec-25 06:31N 44°49' E 020°29'0 0.0
2016-Dec-25 05:31N 44°49' E 020°29'0 0.0
2016-Dec-25 04:31N 44°49' E 020°29'0 0.0
2016-Dec-25 03:31N 44°49' E 020°29'0 0.0
2016-Dec-25 02:31N 44°49' E 020°29'0 0.0
2016-Dec-25 01:31N 44°49' E 020°29'0 0.0
2016-Dec-25 00:31N 44°49' E 020°29'0 0.0
2016-Dec-24 23:31N 44°49' E 020°29'0 0.0
2016-Dec-24 22:31N 44°49' E 020°29'0 0.0
2016-Dec-24 21:31N 44°49' E 020°29'0 0.0
2016-Dec-24 20:31N 44°49' E 020°29'0 0.0
2016-Dec-24 19:31N 44°49' E 020°29'0 0.0
2016-Dec-24 18:31N 44°49' E 020°29'0 0.0
2016-Dec-24 17:31N 44°49' E 020°29'0 0.0
2016-Dec-24 16:31N 44°49' E 020°29'0 0.0
2016-Dec-24 15:31N 44°49' E 020°29'0 0.0
2016-Dec-24 14:31N 44°49' E 020°29'0 0.0
2016-Dec-24 13:33N 44°49' E 020°29'0 0.0
2016-Dec-24 12:33N 44°49' E 020°29'0 0.0
2016-Dec-24 11:33N 44°49' E 020°29'0 0.0
2016-Dec-24 10:33N 44°49' E 020°29'0 0.0
2016-Dec-24 09:27N 44°49' E 020°29'0 0.0
2016-Dec-24 08:33N 44°49' E 020°29'0 0.0
2016-Dec-24 07:33N 44°49' E 020°29'0 0.0
2016-Dec-24 06:33N 44°49' E 020°29'0 0.0
2016-Dec-24 05:33N 44°49' E 020°29'0 0.0
2016-Dec-24 04:33N 44°49' E 020°29'0 0.0
2016-Dec-24 03:33N 44°49' E 020°29'0 0.0
2016-Dec-24 02:33N 44°49' E 020°29'0 0.0
2016-Dec-24 01:33N 44°49' E 020°29'0 0.0
2016-Dec-24 00:33N 44°49' E 020°29'0 0.0
2016-Dec-23 23:33N 44°49' E 020°29'0 0.0
2016-Dec-23 22:33N 44°49' E 020°29'0 0.0
2016-Dec-23 21:33N 44°49' E 020°29'0 0.0
2016-Dec-23 20:33N 44°49' E 020°29'0 0.0
2016-Dec-23 19:33N 44°49' E 020°29'0 0.0
2016-Dec-23 18:30N 44°49' E 020°29'0 0.1
2016-Dec-23 17:33N 44°49' E 020°29'0 0.1
2016-Dec-23 16:28N 44°49' E 020°29'0 0.0
2016-Dec-23 15:31N 44°49' E 020°29'0 0.0
2016-Dec-23 14:31N 44°49' E 020°29'0 0.0
2016-Dec-23 13:28N 44°49' E 020°29'0 0.0
2016-Dec-23 12:28N 44°49' E 020°29'0 0.0
2016-Dec-23 11:31N 44°49' E 020°29'0 0.0
2016-Dec-23 10:31N 44°49' E 020°29'0 0.0
2016-Dec-23 09:31N 44°49' E 020°29'0 0.0
2016-Dec-23 08:31N 44°49' E 020°29'0 0.0
2016-Dec-23 07:31N 44°49' E 020°29'0 0.0
2016-Dec-23 06:31N 44°49' E 020°29'0 0.0
2016-Dec-23 05:33N 44°49' E 020°29'0 0.0
2016-Dec-23 04:24N 44°49' E 020°29'0 0.0
2016-Dec-23 03:33N 44°49' E 020°29'0 0.0
2016-Dec-23 02:33N 44°49' E 020°29'0 0.0
2016-Dec-23 01:33N 44°49' E 020°29'0 0.0
2016-Dec-23 00:33N 44°49' E 020°29'0 0.0
2016-Dec-22 23:33N 44°49' E 020°29'0 0.0
2016-Dec-22 22:33N 44°49' E 020°29'0 0.0
2016-Dec-22 21:33N 44°49' E 020°29'0 0.0
2016-Dec-22 20:33N 44°49' E 020°29'0 0.0
2016-Dec-22 19:33N 44°49' E 020°29'0 0.0
2016-Dec-22 18:33N 44°49' E 020°29'0 0.0
2016-Dec-22 17:33N 44°49' E 020°29'0 0.0
2016-Dec-22 16:33N 44°49' E 020°29'0 0.0
2016-Dec-22 15:33N 44°49' E 020°29'0 0.0
2016-Dec-22 14:33N 44°49' E 020°29'0 0.0
2016-Dec-22 13:33N 44°49' E 020°29'0 0.0
2016-Dec-22 12:33N 44°49' E 020°29'0 0.0
2016-Dec-22 11:33N 44°49' E 020°29'0 0.0
2016-Dec-22 10:31N 44°49' E 020°29'0 0.0
2016-Dec-22 09:31N 44°49' E 020°29'0 0.0
2016-Dec-22 08:30N 44°49' E 020°29'0 0.0
2016-Dec-22 07:31N 44°49' E 020°29'0 0.0
2016-Dec-22 06:31N 44°49' E 020°29'0 0.0
2016-Dec-22 05:28N 44°49' E 020°29'0 0.0
2016-Dec-22 04:31N 44°49' E 020°29'0 0.0
2016-Dec-22 03:31N 44°49' E 020°29'0 0.0
2016-Dec-22 02:31N 44°49' E 020°29'0 0.0
2016-Dec-22 01:31N 44°49' E 020°29'0 0.0
2016-Dec-22 00:28N 44°49' E 020°29'0 0.0
2016-Dec-21 23:31N 44°49' E 020°29'0 0.0
2016-Dec-21 22:31N 44°49' E 020°29'0 0.0
2016-Dec-21 21:31N 44°49' E 020°29'0 0.0
2016-Dec-21 20:31N 44°49' E 020°29'0 0.0
2016-Dec-21 19:31N 44°49' E 020°29'0 0.0
2016-Dec-21 18:28N 44°49' E 020°29'0 0.0
2016-Dec-21 17:31N 44°49' E 020°29'0 0.0
2016-Dec-21 16:31N 44°49' E 020°29'0 0.0
2016-Dec-21 15:31N 44°49' E 020°29'0 0.0
2016-Dec-21 14:31N 44°49' E 020°29'0 0.0
2016-Dec-21 13:31N 44°49' E 020°29'0 0.0
2016-Dec-21 12:31N 44°49' E 020°29'0 0.0
2016-Dec-21 11:31N 44°49' E 020°29'0 0.2
2016-Dec-21 10:31N 44°49' E 020°29'0 0.0
2016-Dec-21 09:33N 44°49' E 020°29'0 0.0
2016-Dec-21 08:33N 44°49' E 020°29'0 0.0
2016-Dec-21 07:32N 44°49' E 020°29'0 0.0
2016-Dec-21 06:32N 44°49' E 020°29'0 0.0
2016-Dec-21 05:32N 44°49' E 020°29'0 0.0
2016-Dec-21 04:32N 44°49' E 020°29'0 0.0
2016-Dec-21 03:32N 44°49' E 020°29'0 0.0
2016-Dec-21 02:32N 44°49' E 020°29'0 0.0
2016-Dec-21 01:32N 44°49' E 020°29'0 0.0
2016-Dec-21 00:32N 44°49' E 020°29'0 0.0
2016-Dec-20 23:32N 44°49' E 020°29'0 0.0
2016-Dec-20 22:32N 44°49' E 020°29'0 0.0
2016-Dec-20 21:32N 44°49' E 020°29'0 0.0
2016-Dec-20 20:32N 44°49' E 020°29'0 0.0
2016-Dec-20 19:32N 44°49' E 020°29'0 0.0
2016-Dec-20 18:32N 44°49' E 020°29'0 0.0
2016-Dec-20 17:32N 44°49' E 020°29'0 0.0
2016-Dec-20 16:33N 44°49' E 020°29'0 0.0
2016-Dec-20 15:33N 44°49' E 020°29'0 0.0
2016-Dec-20 14:33N 44°49' E 020°29'0 0.0
2016-Dec-20 13:33N 44°49' E 020°29'0 0.0
2016-Dec-20 12:33N 44°50' E 020°29'0 0.0
2016-Dec-20 11:33N 44°49' E 020°29'0 0.0
2016-Dec-20 10:33N 44°49' E 020°29'0 0.0
2016-Dec-20 09:33N 44°49' E 020°29'0 0.0
2016-Dec-20 08:33N 44°49' E 020°29'0 0.0
2016-Dec-20 07:33N 44°49' E 020°29'0 0.0
2016-Dec-20 06:33N 44°49' E 020°29'0 0.0
2016-Dec-20 05:33N 44°49' E 020°29'0 0.0
2016-Dec-20 04:33N 44°49' E 020°29'0 0.0
2016-Dec-20 03:33N 44°49' E 020°29'  
Track history (hours):
 
Tides and Currents Weather Stations Pressure Air Temp Water Temp Dewpoint Dewpoint Depression Visibility Wind Speed Wind Dir Waves Ship Positions

Aleksandr Zhitnik

Last reported at 2016-Dec-30 03:10 UTC. Time now 2017-Feb-25 11:46 UTC.
Position N 43°48' E 023°08'.
Warning: this ship's position is 57 days out of date.

Length 85 m; draft 1.8 m.

MMSI: 272089600.

Date/timePositionNaut miles runAvg speedWind from/ knotsBaromVisibWave heightAir tempDewpointWater temp
2016-Dec-30 03:10N 43°48' E 023°08'5 4.9
2016-Dec-30 02:14N 43°48' E 023°02'8 4.6
2016-Dec-30 00:32N 43°51' E 022°52'4 4.5
2016-Dec-29 23:33N 43°55' E 022°51'5 4.5
2016-Dec-29 22:31N 43°59' E 022°53'5 5.1
2016-Dec-29 21:29N 44°01' E 023°00'4 4.6
2016-Dec-29 20:33N 44°05' E 023°03'5 4.6
2016-Dec-29 19:33N 44°06' E 022°56'5 4.9
2016-Dec-29 18:34N 44°09' E 022°51'5 4.7
2016-Dec-29 17:34N 44°11' E 022°46'5 4.5
2016-Dec-29 16:34N 44°14' E 022°41'4 4.0
2016-Dec-29 15:33N 44°18' E 022°38'3 3.1
2016-Dec-29 14:34N 44°19' E 022°34'1 0.8
2016-Dec-29 13:34N 44°20' E 022°33'4 4.4
2016-Dec-29 12:34N 44°23' E 022°30'4 4.0
2016-Dec-29 11:33N 44°27' E 022°28'3 2.7
2016-Dec-29 10:34N 44°28' E 022°31'3 3.4
2016-Dec-29 09:34N 44°31' E 022°34'3 3.5
2016-Dec-29 08:33N 44°33' E 022°38'4 4.0
2016-Dec-29 07:34N 44°31' E 022°43'3 3.4
2016-Dec-29 06:33N 44°35' E 022°44'4 4.1
2016-Dec-29 05:33N 44°37' E 022°39'5 4.8
2016-Dec-29 04:33N 44°39' E 022°33'2 1.7
2016-Dec-29 03:33N 44°40' E 022°31'0 0.1
2016-Dec-29 02:33N 44°40' E 022°31'2 2.3
2016-Dec-29 01:33N 44°42' E 022°29'3 3.2
2016-Dec-29 00:33N 44°42' E 022°25'3 3.4
2016-Dec-28 23:33N 44°40' E 022°21'8 4.2
2016-Dec-28 21:33N 44°34' E 022°14'4 4.3
2016-Dec-28 20:33N 44°30' E 022°12'3 3.5
2016-Dec-28 19:33N 44°29' E 022°07'4 4.0
2016-Dec-28 18:33N 44°32' E 022°04'4 4.1
2016-Dec-28 17:33N 44°36' E 022°01'16 4.0
2016-Dec-28 13:32N 44°41' E 021°40'5 4.3
2016-Dec-28 12:27N 44°45' E 021°36'4 4.0
2016-Dec-28 11:24N 44°46' E 021°30'1 0.1
2016-Dec-28 04:10N 44°46' E 021°31'0 0.4
2016-Dec-28 03:23N 44°46' E 021°31'3 3.9
2016-Dec-28 02:32N 44°46' E 021°26'9 4.2
2016-Dec-28 00:28N 44°47' E 021°14'4 4.5
2016-Dec-27 23:34N 44°45' E 021°09'5 5.0
2016-Dec-27 22:33N 44°43' E 021°03'4 4.2
2016-Dec-27 21:33N 44°42' E 020°57'5 5.3
2016-Dec-27 20:34N 44°39' E 020°50'5 5.3
2016-Dec-27 19:33N 44°41' E 020°43'6 5.5
2016-Dec-27 18:32N 44°45' E 020°38'5 5.1
2016-Dec-27 17:32N 44°50' E 020°38'4 3.8
2016-Dec-27 16:32N 44°50' E 020°33'3 3.3
2016-Dec-27 15:32N 44°50' E 020°29'0 0.2
2016-Dec-27 14:32N 44°50' E 020°29'0 0.3
2016-Dec-27 13:32N 44°49' E 020°29'0 0.0
2016-Dec-27 12:31N 44°49' E 020°29'0 0.0
2016-Dec-27 11:31N 44°49' E 020°29'0 0.0
2016-Dec-27 10:28N 44°49' E 020°29'0 0.0
2016-Dec-27 09:28N 44°49' E 020°29'0 0.0
2016-Dec-27 08:31N 44°49' E 020°29'0 0.0
2016-Dec-27 07:31N 44°49' E 020°29'0 0.0
2016-Dec-27 06:31N 44°49' E 020°29'0 0.0
2016-Dec-27 05:28N 44°49' E 020°29'0 0.0
2016-Dec-27 04:31N 44°49' E 020°29'0 0.0
2016-Dec-27 03:31N 44°49' E 020°29'0 0.0
2016-Dec-27 02:31N 44°49' E 020°29'0 0.0
2016-Dec-27 01:28N 44°49' E 020°29'0 0.0
2016-Dec-27 00:31N 44°49' E 020°29'0 0.0
2016-Dec-26 23:31N 44°49' E 020°29'0 0.0
2016-Dec-26 22:28N 44°49' E 020°29'0 0.0
2016-Dec-26 21:31N 44°49' E 020°29'0 0.0
2016-Dec-26 20:31N 44°49' E 020°29'0 0.0
2016-Dec-26 19:31N 44°49' E 020°29'0 0.0
2016-Dec-26 18:31N 44°49' E 020°29'0 0.0
2016-Dec-26 17:31N 44°49' E 020°29'0 0.0
2016-Dec-26 16:31N 44°49' E 020°29'0 0.0
2016-Dec-26 15:31N 44°49' E 020°29'0 0.0
2016-Dec-26 14:31N 44°49' E 020°29'0 0.0
2016-Dec-26 13:31N 44°49' E 020°29'0 0.0
2016-Dec-26 12:31N 44°49' E 020°29'0 0.0
2016-Dec-26 11:31N 44°49' E 020°29'0 0.0
2016-Dec-26 10:31N 44°49' E 020°29'0 0.0
2016-Dec-26 09:31N 44°49' E 020°29'0 0.0
2016-Dec-26 08:31N 44°49' E 020°29'0 0.0
2016-Dec-26 07:31N 44°49' E 020°29'0 0.0
2016-Dec-26 06:31N 44°49' E 020°29'0 0.0
2016-Dec-26 05:31N 44°49' E 020°29'0 0.0
2016-Dec-26 04:31N 44°49' E 020°29'0 0.0
2016-Dec-26 03:31N 44°49' E 020°29'0 0.0
2016-Dec-26 02:31N 44°49' E 020°29'0 0.0
2016-Dec-26 01:31N 44°49' E 020°29'0 0.0
2016-Dec-26 00:31N 44°49' E 020°29'0 0.0
2016-Dec-25 23:31N 44°49' E 020°29'0 0.0
2016-Dec-25 22:31N 44°49' E 020°29'0 0.0
2016-Dec-25 21:28N 44°49' E 020°29'0 0.0
2016-Dec-25 20:31N 44°49' E 020°29'0 0.0
2016-Dec-25 19:31N 44°49' E 020°29'0 0.0
2016-Dec-25 18:31N 44°49' E 020°29'0 0.0
2016-Dec-25 17:31N 44°49' E 020°29'0 0.0
2016-Dec-25 16:31N 44°49' E 020°29'0 0.0
2016-Dec-25 15:31N 44°49' E 020°29'0 0.0
2016-Dec-25 14:31N 44°49' E 020°29'0 0.0
2016-Dec-25 13:31N 44°49' E 020°29'0 0.0
2016-Dec-25 12:31N 44°49' E 020°29'0 0.0
2016-Dec-25 11:31N 44°49' E 020°29'0 0.0
2016-Dec-25 10:31N 44°49' E 020°29'0 0.0
2016-Dec-25 09:31N 44°49' E 020°29'0 0.0
2016-Dec-25 08:31N 44°49' E 020°29'0 0.0
2016-Dec-25 07:31N 44°49' E 020°29'0 0.0
2016-Dec-25 06:31N 44°49' E 020°29'0 0.0
2016-Dec-25 05:31N 44°49' E 020°29'0 0.0
2016-Dec-25 04:31N 44°49' E 020°29'0 0.0
2016-Dec-25 03:31N 44°49' E 020°29'0 0.0
2016-Dec-25 02:31N 44°49' E 020°29'0 0.0
2016-Dec-25 01:31N 44°49' E 020°29'0 0.0
2016-Dec-25 00:31N 44°49' E 020°29'0 0.0
2016-Dec-24 23:31N 44°49' E 020°29'0 0.0
2016-Dec-24 22:31N 44°49' E 020°29'0 0.0
2016-Dec-24 21:31N 44°49' E 020°29'0 0.0
2016-Dec-24 20:31N 44°49' E 020°29'0 0.0
2016-Dec-24 19:31N 44°49' E 020°29'0 0.0
2016-Dec-24 18:31N 44°49' E 020°29'0 0.0
2016-Dec-24 17:31N 44°49' E 020°29'0 0.0
2016-Dec-24 16:31N 44°49' E 020°29'0 0.0
2016-Dec-24 15:31N 44°49' E 020°29'0 0.0
2016-Dec-24 14:31N 44°49' E 020°29'0 0.0
2016-Dec-24 13:33N 44°49' E 020°29'0 0.0
2016-Dec-24 12:33N 44°49' E 020°29'0 0.0
2016-Dec-24 11:33N 44°49' E 020°29'0 0.0
2016-Dec-24 10:33N 44°49' E 020°29'0 0.0
2016-Dec-24 09:27N 44°49' E 020°29'0 0.0
2016-Dec-24 08:33N 44°49' E 020°29'0 0.0
2016-Dec-24 07:33N 44°49' E 020°29'0 0.0
2016-Dec-24 06:33N 44°49' E 020°29'0 0.0
2016-Dec-24 05:33N 44°49' E 020°29'0 0.0
2016-Dec-24 04:33N 44°49' E 020°29'0 0.0
2016-Dec-24 03:33N 44°49' E 020°29'0 0.0
2016-Dec-24 02:33N 44°49' E 020°29'0 0.0
2016-Dec-24 01:33N 44°49' E 020°29'0 0.0
2016-Dec-24 00:33N 44°49' E 020°29'0 0.0
2016-Dec-23 23:33N 44°49' E 020°29'0 0.0
2016-Dec-23 22:33N 44°49' E 020°29'0 0.0
2016-Dec-23 21:33N 44°49' E 020°29'0 0.0
2016-Dec-23 20:33N 44°49' E 020°29'0 0.0
2016-Dec-23 19:33N 44°49' E 020°29'0 0.0
2016-Dec-23 18:30N 44°49' E 020°29'0 0.1
2016-Dec-23 17:33N 44°49' E 020°29'0 0.1
2016-Dec-23 16:28N 44°49' E 020°29'0 0.0
2016-Dec-23 15:31N 44°49' E 020°29'0 0.0
2016-Dec-23 14:31N 44°49' E 020°29'0 0.0
2016-Dec-23 13:28N 44°49' E 020°29'0 0.0
2016-Dec-23 12:28N 44°49' E 020°29'0 0.0
2016-Dec-23 11:31N 44°49' E 020°29'0 0.0
2016-Dec-23 10:31N 44°49' E 020°29'0 0.0
2016-Dec-23 09:31N 44°49' E 020°29'0 0.0
2016-Dec-23 08:31N 44°49' E 020°29'0 0.0
2016-Dec-23 07:31N 44°49' E 020°29'0 0.0
2016-Dec-23 06:31N 44°49' E 020°29'0 0.0
2016-Dec-23 05:33N 44°49' E 020°29'0 0.0
2016-Dec-23 04:24N 44°49' E 020°29'0 0.0
2016-Dec-23 03:33N 44°49' E 020°29'0 0.0
2016-Dec-23 02:33N 44°49' E 020°29'0 0.0
2016-Dec-23 01:33N 44°49' E 020°29'0 0.0
2016-Dec-23 00:33N 44°49' E 020°29'0 0.0
2016-Dec-22 23:33N 44°49' E 020°29'0 0.0
2016-Dec-22 22:33N 44°49' E 020°29'0 0.0
2016-Dec-22 21:33N 44°49' E 020°29'0 0.0
2016-Dec-22 20:33N 44°49' E 020°29'0 0.0
2016-Dec-22 19:33N 44°49' E 020°29'0 0.0
2016-Dec-22 18:33N 44°49' E 020°29'0 0.0
2016-Dec-22 17:33N 44°49' E 020°29'0 0.0
2016-Dec-22 16:33N 44°49' E 020°29'0 0.0
2016-Dec-22 15:33N 44°49' E 020°29'0 0.0
2016-Dec-22 14:33N 44°49' E 020°29'0 0.0
2016-Dec-22 13:33N 44°49' E 020°29'0 0.0
2016-Dec-22 12:33N 44°49' E 020°29'0 0.0
2016-Dec-22 11:33N 44°49' E 020°29'0 0.0
2016-Dec-22 10:31N 44°49' E 020°29'0 0.0
2016-Dec-22 09:31N 44°49' E 020°29'0 0.0
2016-Dec-22 08:30N 44°49' E 020°29'0 0.0
2016-Dec-22 07:31N 44°49' E 020°29'0 0.0
2016-Dec-22 06:31N 44°49' E 020°29'0 0.0
2016-Dec-22 05:28N 44°49' E 020°29'0 0.0
2016-Dec-22 04:31N 44°49' E 020°29'0 0.0
2016-Dec-22 03:31N 44°49' E 020°29'0 0.0
2016-Dec-22 02:31N 44°49' E 020°29'0 0.0
2016-Dec-22 01:31N 44°49' E 020°29'0 0.0
2016-Dec-22 00:28N 44°49' E 020°29'0 0.0
2016-Dec-21 23:31N 44°49' E 020°29'0 0.0
2016-Dec-21 22:31N 44°49' E 020°29'0 0.0
2016-Dec-21 21:31N 44°49' E 020°29'0 0.0
2016-Dec-21 20:31N 44°49' E 020°29'0 0.0
2016-Dec-21 19:31N 44°49' E 020°29'0 0.0
2016-Dec-21 18:28N 44°49' E 020°29'0 0.0
2016-Dec-21 17:31N 44°49' E 020°29'0 0.0
2016-Dec-21 16:31N 44°49' E 020°29'0 0.0
2016-Dec-21 15:31N 44°49' E 020°29'0 0.0
2016-Dec-21 14:31N 44°49' E 020°29'0 0.0
2016-Dec-21 13:31N 44°49' E 020°29'0 0.0
2016-Dec-21 12:31N 44°49' E 020°29'0 0.0
2016-Dec-21 11:31N 44°49' E 020°29'0 0.2
2016-Dec-21 10:31N 44°49' E 020°29'0 0.0
2016-Dec-21 09:33N 44°49' E 020°29'0 0.0
2016-Dec-21 08:33N 44°49' E 020°29'0 0.0
2016-Dec-21 07:32N 44°49' E 020°29'0 0.0
2016-Dec-21 06:32N 44°49' E 020°29'0 0.0
2016-Dec-21 05:32N 44°49' E 020°29'0 0.0
2016-Dec-21 04:32N 44°49' E 020°29'0 0.0
2016-Dec-21 03:32N 44°49' E 020°29'0 0.0
2016-Dec-21 02:32N 44°49' E 020°29'0 0.0
2016-Dec-21 01:32N 44°49' E 020°29'0 0.0
2016-Dec-21 00:32N 44°49' E 020°29'0 0.0
2016-Dec-20 23:32N 44°49' E 020°29'0 0.0
2016-Dec-20 22:32N 44°49' E 020°29'0 0.0
2016-Dec-20 21:32N 44°49' E 020°29'0 0.0
2016-Dec-20 20:32N 44°49' E 020°29'0 0.0
2016-Dec-20 19:32N 44°49' E 020°29'0 0.0
2016-Dec-20 18:32N 44°49' E 020°29'0 0.0
2016-Dec-20 17:32N 44°49' E 020°29'0 0.0
2016-Dec-20 16:33N 44°49' E 020°29'0 0.0
2016-Dec-20 15:33N 44°49' E 020°29'0 0.0
2016-Dec-20 14:33N 44°49' E 020°29'0 0.0
2016-Dec-20 13:33N 44°49' E 020°29'0 0.0
2016-Dec-20 12:33N 44°50' E 020°29'0 0.0
2016-Dec-20 11:33N 44°49' E 020°29'0 0.0
2016-Dec-20 10:33N 44°49' E 020°29'0 0.0
2016-Dec-20 09:33N 44°49' E 020°29'0 0.0
2016-Dec-20 08:33N 44°49' E 020°29'0 0.0
2016-Dec-20 07:33N 44°49' E 020°29'0 0.0
2016-Dec-20 06:33N 44°49' E 020°29'0 0.0
2016-Dec-20 05:33N 44°49' E 020°29'0 0.0
2016-Dec-20 04:33N 44°49' E 020°29'0 0.0
2016-Dec-20 03:33N 44°49' E 020°29'  

Dump ship's entire track history